DAL1499 KATL-KMCO
Flight info
| Callsign | DAL1499 |
|---|---|
| Flight time | 1h 2m |
| Altitude | 33000 |
| Route | SMLTZ3 WALET DCT ZJAYX GRNCH5 |
| Aircraft | B739/M-S/U |
Departure
| Time | 2026-05-07 21:32 |
|---|---|
| Airport | Hartsfield Jackson Atlanta International Airport (KATL) |
Arrival
| Time | 2026-05-07 22:35 |
|---|---|
| Airport | Orlando International Airport (KMCO) |
| Time | Latitude | Longitude | Altitude | Speed | Heading |
|---|---|---|---|---|---|
| 2026-05-07 21:14 | 33.63886 | -84.42878 | 1005 ft | 0 kts | 283° |
| 2026-05-07 21:16 | 33.63886 | -84.42877 | 1005 ft | 0 kts | 283° |
| 2026-05-07 21:23 | 33.63883 | -84.42861 | 1005 ft | 3 kts | 283° |
| 2026-05-07 21:23 | 33.63878 | -84.42837 | 1005 ft | 3 kts | 283° |
| 2026-05-07 21:23 | 33.63874 | -84.42814 | 1005 ft | 3 kts | 283° |
| 2026-05-07 21:23 | 33.63871 | -84.42803 | 1005 ft | 1 kts | 283° |
| 2026-05-07 21:26 | 33.63872 | -84.42804 | 1005 ft | 2 kts | 282° |
| 2026-05-07 21:27 | 33.63838 | -84.42816 | 1005 ft | 13 kts | 163° |
| 2026-05-07 21:27 | 33.63699 | -84.42804 | 1005 ft | 15 kts | 169° |
| 2026-05-07 21:27 | 33.63660 | -84.42745 | 1005 ft | 14 kts | 102° |
| 2026-05-07 21:27 | 33.63655 | -84.42628 | 1006 ft | 15 kts | 90° |
| 2026-05-07 21:28 | 33.63655 | -84.42476 | 1006 ft | 21 kts | 89° |
| 2026-05-07 21:28 | 33.63655 | -84.42302 | 1006 ft | 21 kts | 90° |
| 2026-05-07 21:28 | 33.63655 | -84.42135 | 1006 ft | 20 kts | 90° |
| 2026-05-07 21:28 | 33.63655 | -84.41970 | 1005 ft | 19 kts | 90° |
| 2026-05-07 21:29 | 33.63655 | -84.41812 | 1005 ft | 19 kts | 89° |
| 2026-05-07 21:29 | 33.63655 | -84.41656 | 1005 ft | 20 kts | 90° |
| 2026-05-07 21:29 | 33.63655 | -84.41486 | 1005 ft | 21 kts | 90° |
| 2026-05-07 21:29 | 33.63654 | -84.41315 | 1005 ft | 20 kts | 91° |
| 2026-05-07 21:30 | 33.63655 | -84.41150 | 1005 ft | 19 kts | 89° |
| 2026-05-07 21:30 | 33.63655 | -84.40990 | 1005 ft | 19 kts | 90° |
| 2026-05-07 21:30 | 33.63602 | -84.40908 | 1005 ft | 13 kts | 177° |
| 2026-05-07 21:30 | 33.63575 | -84.40908 | 1005 ft | 0 kts | 181° |
| 2026-05-07 21:31 | 33.63518 | -84.40908 | 1006 ft | 12 kts | 180° |
| 2026-05-07 21:31 | 33.63471 | -84.40941 | 1006 ft | 8 kts | 261° |
| 2026-05-07 21:32 | 33.63471 | -84.41139 | 1004 ft | 62 kts | 270° |
| 2026-05-07 21:32 | 33.63471 | -84.42000 | 1006 ft | 141 kts | 270° |
| 2026-05-07 21:32 | 33.63443 | -84.43402 | 1294 ft | 182 kts | 270° |
| 2026-05-07 21:32 | 33.63386 | -84.44954 | 2113 ft | 199 kts | 272° |
| 2026-05-07 21:33 | 33.63394 | -84.46670 | 2822 ft | 220 kts | 272° |
| 2026-05-07 21:33 | 33.63411 | -84.48563 | 3431 ft | 230 kts | 271° |
| 2026-05-07 21:33 | 33.63424 | -84.50550 | 4043 ft | 244 kts | 271° |
| 2026-05-07 21:33 | 33.63434 | -84.52613 | 4966 ft | 248 kts | 270° |
| 2026-05-07 21:34 | 33.63441 | -84.54656 | 6116 ft | 243 kts | 270° |
| 2026-05-07 21:34 | 33.63445 | -84.56691 | 7107 ft | 243 kts | 270° |
| 2026-05-07 21:34 | 33.63446 | -84.58724 | 8025 ft | 245 kts | 270° |
| 2026-05-07 21:34 | 33.63447 | -84.60783 | 8964 ft | 247 kts | 270° |
| 2026-05-07 21:35 | 33.63442 | -84.62847 | 9902 ft | 249 kts | 268° |
| 2026-05-07 21:35 | 33.63003 | -84.64844 | 10805 ft | 252 kts | 246° |
| 2026-05-07 21:35 | 33.61980 | -84.66557 | 11815 ft | 256 kts | 234° |
| 2026-05-07 21:35 | 33.60518 | -84.67900 | 12624 ft | 273 kts | 223° |
| 2026-05-07 21:36 | 33.58842 | -84.69041 | 13452 ft | 284 kts | 216° |
| 2026-05-07 21:36 | 33.56843 | -84.69533 | 14250 ft | 311 kts | 195° |
| 2026-05-07 21:36 | 33.54632 | -84.69315 | 15160 ft | 323 kts | 185° |
| 2026-05-07 21:36 | 33.52403 | -84.68853 | 15977 ft | 327 kts | 184° |
| 2026-05-07 21:37 | 33.50103 | -84.68368 | 16258 ft | 347 kts | 184° |
| 2026-05-07 21:37 | 33.47642 | -84.67884 | 16429 ft | 368 kts | 183° |
| 2026-05-07 21:37 | 33.45047 | -84.67392 | 16646 ft | 385 kts | 183° |
| 2026-05-07 21:37 | 33.42385 | -84.66576 | 17159 ft | 412 kts | 166° |
| 2026-05-07 21:38 | 33.39963 | -84.64611 | 17856 ft | 440 kts | 146° |
| 2026-05-07 21:38 | 33.37773 | -84.62023 | 18527 ft | 443 kts | 144° |
| 2026-05-07 21:38 | 33.35587 | -84.59389 | 19010 ft | 448 kts | 144° |
| 2026-05-07 21:38 | 33.33380 | -84.56713 | 19493 ft | 453 kts | 144° |
| 2026-05-07 21:39 | 33.31152 | -84.54028 | 19995 ft | 456 kts | 144° |
| 2026-05-07 21:39 | 33.28929 | -84.51371 | 20509 ft | 458 kts | 144° |
| 2026-05-07 21:39 | 33.26659 | -84.48678 | 21024 ft | 461 kts | 144° |
| 2026-05-07 21:39 | 33.24367 | -84.45974 | 21515 ft | 464 kts | 144° |
| 2026-05-07 21:40 | 33.22060 | -84.43262 | 21993 ft | 467 kts | 144° |
| 2026-05-07 21:40 | 33.19735 | -84.40531 | 22452 ft | 471 kts | 144° |
| 2026-05-07 21:40 | 33.17382 | -84.37771 | 22918 ft | 474 kts | 144° |
| 2026-05-07 21:40 | 33.15021 | -84.35002 | 23393 ft | 477 kts | 144° |
| 2026-05-07 21:41 | 33.12646 | -84.32218 | 23772 ft | 480 kts | 144° |
| 2026-05-07 21:41 | 33.10255 | -84.29416 | 24142 ft | 483 kts | 144° |
| 2026-05-07 21:41 | 33.07849 | -84.26599 | 24495 ft | 485 kts | 144° |
| 2026-05-07 21:41 | 33.05435 | -84.23773 | 24844 ft | 488 kts | 144° |
| 2026-05-07 21:42 | 33.03002 | -84.20928 | 25230 ft | 491 kts | 144° |
| 2026-05-07 21:42 | 33.00546 | -84.18171 | 25557 ft | 487 kts | 151° |
| 2026-05-07 21:42 | 32.97704 | -84.16185 | 25854 ft | 464 kts | 170° |
| 2026-05-07 21:42 | 32.94681 | -84.14941 | 26295 ft | 459 kts | 173° |
| 2026-05-07 21:43 | 32.91639 | -84.13744 | 26720 ft | 460 kts | 173° |
| 2026-05-07 21:43 | 32.88595 | -84.12542 | 27179 ft | 460 kts | 173° |
| 2026-05-07 21:43 | 32.85561 | -84.11328 | 27699 ft | 459 kts | 173° |
| 2026-05-07 21:43 | 32.82536 | -84.10099 | 28252 ft | 458 kts | 172° |
| 2026-05-07 21:44 | 32.79522 | -84.08864 | 28789 ft | 457 kts | 172° |
| 2026-05-07 21:44 | 32.76519 | -84.07630 | 29332 ft | 457 kts | 172° |
| 2026-05-07 21:44 | 32.73520 | -84.06396 | 29842 ft | 455 kts | 172° |
| 2026-05-07 21:44 | 32.70527 | -84.05163 | 30388 ft | 453 kts | 173° |
| 2026-05-07 21:45 | 32.67596 | -84.03956 | 30917 ft | 450 kts | 173° |
| 2026-05-07 21:45 | 32.64612 | -84.02735 | 31181 ft | 455 kts | 173° |
| 2026-05-07 21:45 | 32.61595 | -84.01507 | 31352 ft | 462 kts | 173° |
| 2026-05-07 21:45 | 32.58547 | -84.00263 | 31760 ft | 462 kts | 173° |
| 2026-05-07 21:46 | 32.55523 | -83.99020 | 32349 ft | 457 kts | 173° |
| 2026-05-07 21:46 | 32.52565 | -83.97803 | 32898 ft | 454 kts | 173° |
| 2026-05-07 21:46 | 32.46531 | -83.95344 | 32935 ft | 458 kts | 173° |
| 2026-05-07 21:47 | 32.40545 | -83.92899 | 32952 ft | 451 kts | 173° |
| 2026-05-07 21:47 | 32.34720 | -83.89921 | 32949 ft | 476 kts | 155° |
| 2026-05-07 21:48 | 32.29404 | -83.85148 | 32943 ft | 480 kts | 152° |
| 2026-05-07 21:48 | 32.24167 | -83.80326 | 32938 ft | 480 kts | 153° |
| 2026-05-07 21:49 | 32.18860 | -83.75557 | 32896 ft | 479 kts | 153° |
| 2026-05-07 21:49 | 32.13529 | -83.70839 | 32935 ft | 478 kts | 153° |
| 2026-05-07 21:50 | 32.08200 | -83.66148 | 32941 ft | 479 kts | 153° |
| 2026-05-07 21:50 | 32.02853 | -83.61443 | 32942 ft | 479 kts | 153° |
| 2026-05-07 21:51 | 31.97510 | -83.56744 | 32949 ft | 479 kts | 153° |
| 2026-05-07 21:51 | 31.92185 | -83.52068 | 32946 ft | 480 kts | 153° |
| 2026-05-07 21:52 | 31.86824 | -83.47367 | 32948 ft | 482 kts | 152° |
| 2026-05-07 21:52 | 31.81395 | -83.42620 | 32976 ft | 489 kts | 152° |
| 2026-05-07 21:53 | 31.75926 | -83.37834 | 32972 ft | 489 kts | 152° |
| 2026-05-07 21:53 | 31.70502 | -83.33098 | 32980 ft | 488 kts | 152° |
| 2026-05-07 21:54 | 31.65053 | -83.28347 | 32979 ft | 487 kts | 152° |
| 2026-05-07 21:54 | 31.59350 | -83.24328 | 32962 ft | 470 kts | 163° |
| 2026-05-07 21:55 | 31.53409 | -83.21148 | 32968 ft | 469 kts | 165° |
| 2026-05-07 21:55 | 31.47466 | -83.17980 | 32968 ft | 470 kts | 164° |
| 2026-05-07 21:56 | 31.41525 | -83.14710 | 32963 ft | 471 kts | 163° |
| 2026-05-07 21:56 | 31.35599 | -83.11404 | 32972 ft | 471 kts | 163° |
| 2026-05-07 21:57 | 31.29679 | -83.08101 | 32968 ft | 471 kts | 163° |
| 2026-05-07 21:57 | 31.23785 | -83.04821 | 32969 ft | 472 kts | 163° |
| 2026-05-07 21:58 | 31.17848 | -83.01525 | 32976 ft | 472 kts | 163° |
| 2026-05-07 21:58 | 31.11906 | -82.98232 | 32977 ft | 473 kts | 163° |
| 2026-05-07 21:59 | 31.05962 | -82.94942 | 32984 ft | 473 kts | 163° |
| 2026-05-07 21:59 | 31.00010 | -82.91653 | 32975 ft | 473 kts | 163° |
| 2026-05-07 22:00 | 30.94042 | -82.88360 | 32990 ft | 475 kts | 163° |
| 2026-05-07 22:00 | 30.88100 | -82.84925 | 33014 ft | 485 kts | 154° |
| 2026-05-07 22:01 | 30.82648 | -82.80139 | 33037 ft | 494 kts | 148° |
| 2026-05-07 22:01 | 30.77341 | -82.75095 | 33031 ft | 495 kts | 148° |
| 2026-05-07 22:02 | 30.71951 | -82.70103 | 33054 ft | 495 kts | 149° |
| 2026-05-07 22:02 | 30.66512 | -82.65187 | 33060 ft | 496 kts | 149° |
| 2026-05-07 22:03 | 30.61050 | -82.60287 | 33060 ft | 496 kts | 149° |
| 2026-05-07 22:03 | 30.55577 | -82.55381 | 33081 ft | 497 kts | 149° |
| 2026-05-07 22:04 | 30.50104 | -82.50474 | 33078 ft | 497 kts | 149° |
| 2026-05-07 22:04 | 30.44636 | -82.45578 | 33074 ft | 496 kts | 149° |
| 2026-05-07 22:05 | 30.39205 | -82.40722 | 33064 ft | 496 kts | 149° |
| 2026-05-07 22:05 | 30.33736 | -82.35841 | 33092 ft | 496 kts | 149° |
| 2026-05-07 22:06 | 30.28275 | -82.30975 | 33083 ft | 496 kts | 149° |
| 2026-05-07 22:06 | 30.22807 | -82.26108 | 33067 ft | 496 kts | 149° |
| 2026-05-07 22:07 | 30.19942 | -82.23972 | 33032 ft | 481 kts | 164° |
| 2026-05-07 22:07 | 30.16833 | -82.22843 | 33011 ft | 458 kts | 179° |
| 2026-05-07 22:07 | 30.13712 | -82.22233 | 32656 ft | 450 kts | 180° |
| 2026-05-07 22:07 | 30.10658 | -82.21693 | 31999 ft | 449 kts | 181° |
| 2026-05-07 22:08 | 30.07519 | -82.21139 | 31172 ft | 453 kts | 180° |
| 2026-05-07 22:08 | 30.04429 | -82.20571 | 30324 ft | 458 kts | 180° |
| 2026-05-07 22:08 | 30.01273 | -82.19965 | 29394 ft | 461 kts | 180° |
| 2026-05-07 22:08 | 29.98100 | -82.19339 | 28400 ft | 464 kts | 179° |
| 2026-05-07 22:09 | 29.94903 | -82.18704 | 27387 ft | 467 kts | 179° |
| 2026-05-07 22:09 | 29.91692 | -82.18069 | 26369 ft | 470 kts | 179° |
| 2026-05-07 22:09 | 29.88451 | -82.17425 | 25412 ft | 472 kts | 178° |
| 2026-05-07 22:09 | 29.85222 | -82.16779 | 24713 ft | 467 kts | 178° |
| 2026-05-07 22:10 | 29.82049 | -82.16138 | 24156 ft | 459 kts | 178° |
| 2026-05-07 22:10 | 29.78915 | -82.15507 | 23532 ft | 454 kts | 178° |
| 2026-05-07 22:10 | 29.75817 | -82.14888 | 22753 ft | 450 kts | 178° |
| 2026-05-07 22:10 | 29.72743 | -82.14277 | 22015 ft | 446 kts | 178° |
| 2026-05-07 22:11 | 29.69693 | -82.13671 | 21325 ft | 442 kts | 177° |
| 2026-05-07 22:11 | 29.66715 | -82.13081 | 20640 ft | 438 kts | 177° |
| 2026-05-07 22:11 | 29.63720 | -82.12487 | 19993 ft | 434 kts | 177° |
| 2026-05-07 22:11 | 29.60764 | -82.11902 | 19348 ft | 430 kts | 177° |
| 2026-05-07 22:12 | 29.57828 | -82.11321 | 18674 ft | 427 kts | 176° |
| 2026-05-07 22:12 | 29.54897 | -82.10742 | 17963 ft | 426 kts | 176° |
| 2026-05-07 22:12 | 29.52939 | -82.10355 | 17543 ft | 422 kts | 176° |
| 2026-05-07 22:12 | 29.50060 | -82.09784 | 17176 ft | 417 kts | 176° |
| 2026-05-07 22:13 | 29.47192 | -82.09217 | 17065 ft | 417 kts | 176° |
| 2026-05-07 22:13 | 29.44346 | -82.08654 | 17015 ft | 414 kts | 176° |
| 2026-05-07 22:13 | 29.41506 | -82.08093 | 17017 ft | 415 kts | 176° |
| 2026-05-07 22:13 | 29.38661 | -82.07533 | 17013 ft | 415 kts | 176° |
| 2026-05-07 22:14 | 29.35895 | -82.06984 | 16994 ft | 400 kts | 176° |
| 2026-05-07 22:14 | 29.33197 | -82.06446 | 16992 ft | 388 kts | 176° |
| 2026-05-07 22:14 | 29.30550 | -82.05832 | 16994 ft | 392 kts | 168° |
| 2026-05-07 22:14 | 29.28061 | -82.04449 | 17032 ft | 399 kts | 155° |
| 2026-05-07 22:15 | 29.25667 | -82.02880 | 16849 ft | 393 kts | 155° |
| 2026-05-07 22:15 | 29.23298 | -82.01334 | 16410 ft | 390 kts | 155° |
| 2026-05-07 22:15 | 29.20941 | -81.99820 | 15833 ft | 389 kts | 156° |
| 2026-05-07 22:15 | 29.18578 | -81.98320 | 15329 ft | 386 kts | 156° |
| 2026-05-07 22:16 | 29.16239 | -81.96846 | 14901 ft | 381 kts | 156° |
| 2026-05-07 22:16 | 29.13925 | -81.95392 | 14469 ft | 377 kts | 156° |
| 2026-05-07 22:16 | 29.11636 | -81.93957 | 14136 ft | 374 kts | 156° |
| 2026-05-07 22:16 | 29.09353 | -81.92525 | 14079 ft | 374 kts | 156° |
| 2026-05-07 22:17 | 29.07077 | -81.91078 | 14039 ft | 375 kts | 153° |
| 2026-05-07 22:17 | 29.05066 | -81.89242 | 14037 ft | 372 kts | 139° |
| 2026-05-07 22:17 | 29.03255 | -81.87170 | 14023 ft | 366 kts | 139° |
| 2026-05-07 22:17 | 29.01426 | -81.85124 | 14040 ft | 367 kts | 140° |
| 2026-05-07 22:18 | 28.99570 | -81.83108 | 14039 ft | 370 kts | 140° |
| 2026-05-07 22:18 | 28.96025 | -81.78756 | 14034 ft | 378 kts | 130° |
| 2026-05-07 22:18 | 28.94468 | -81.76344 | 14014 ft | 375 kts | 129° |
| 2026-05-07 22:19 | 28.92950 | -81.73962 | 13808 ft | 368 kts | 129° |
| 2026-05-07 22:19 | 28.91428 | -81.71630 | 13336 ft | 365 kts | 130° |
| 2026-05-07 22:19 | 28.89886 | -81.69324 | 12789 ft | 366 kts | 130° |
| 2026-05-07 22:19 | 28.88332 | -81.67022 | 12311 ft | 364 kts | 130° |
| 2026-05-07 22:20 | 28.86791 | -81.64747 | 11872 ft | 361 kts | 130° |
| 2026-05-07 22:20 | 28.85256 | -81.62479 | 11431 ft | 359 kts | 130° |
| 2026-05-07 22:20 | 28.83755 | -81.60260 | 11095 ft | 356 kts | 130° |
| 2026-05-07 22:20 | 28.82246 | -81.58029 | 11053 ft | 351 kts | 130° |
| 2026-05-07 22:21 | 28.80784 | -81.55865 | 10999 ft | 336 kts | 130° |
| 2026-05-07 22:21 | 28.79238 | -81.53987 | 10980 ft | 316 kts | 150° |
| 2026-05-07 22:21 | 28.77345 | -81.52768 | 11010 ft | 311 kts | 157° |
| 2026-05-07 22:21 | 28.75438 | -81.51641 | 10884 ft | 307 kts | 157° |
| 2026-05-07 22:22 | 28.73542 | -81.50527 | 10555 ft | 306 kts | 157° |
| 2026-05-07 22:22 | 28.71640 | -81.49405 | 10162 ft | 308 kts | 156° |
| 2026-05-07 22:22 | 28.69740 | -81.48278 | 9830 ft | 307 kts | 156° |
| 2026-05-07 22:22 | 28.67853 | -81.47153 | 9533 ft | 303 kts | 156° |
| 2026-05-07 22:23 | 28.66006 | -81.46047 | 9287 ft | 298 kts | 155° |
| 2026-05-07 22:23 | 28.64169 | -81.44948 | 8886 ft | 298 kts | 155° |
| 2026-05-07 22:23 | 28.62349 | -81.43858 | 8729 ft | 291 kts | 155° |
| 2026-05-07 22:23 | 28.60570 | -81.42856 | 8640 ft | 278 kts | 165° |
| 2026-05-07 22:24 | 28.58723 | -81.42511 | 8574 ft | 263 kts | 178° |
| 2026-05-07 22:24 | 28.56931 | -81.42357 | 8432 ft | 255 kts | 181° |
| 2026-05-07 22:24 | 28.55159 | -81.42334 | 8160 ft | 254 kts | 184° |
| 2026-05-07 22:24 | 28.53413 | -81.42351 | 7895 ft | 253 kts | 184° |
| 2026-05-07 22:25 | 28.51653 | -81.42370 | 7621 ft | 253 kts | 184° |
| 2026-05-07 22:25 | 28.49890 | -81.42385 | 7366 ft | 253 kts | 183° |
| 2026-05-07 22:25 | 28.48133 | -81.42395 | 7100 ft | 252 kts | 183° |
| 2026-05-07 22:25 | 28.46381 | -81.42401 | 6841 ft | 252 kts | 184° |
| 2026-05-07 22:26 | 28.44611 | -81.42407 | 6509 ft | 255 kts | 182° |
| 2026-05-07 22:26 | 28.42846 | -81.42408 | 6269 ft | 253 kts | 182° |
| 2026-05-07 22:26 | 28.41112 | -81.42409 | 6012 ft | 247 kts | 182° |
| 2026-05-07 22:26 | 28.39399 | -81.42411 | 5609 ft | 246 kts | 182° |
| 2026-05-07 22:27 | 28.37696 | -81.42411 | 5228 ft | 243 kts | 183° |
| 2026-05-07 22:27 | 28.36053 | -81.42410 | 5060 ft | 234 kts | 182° |
| 2026-05-07 22:27 | 28.34435 | -81.42414 | 5026 ft | 231 kts | 182° |
| 2026-05-07 22:27 | 28.32827 | -81.42435 | 5020 ft | 232 kts | 183° |
| 2026-05-07 22:28 | 28.31204 | -81.42496 | 5024 ft | 232 kts | 185° |
| 2026-05-07 22:28 | 28.29616 | -81.42567 | 5017 ft | 231 kts | 187° |
| 2026-05-07 22:28 | 28.28009 | -81.42657 | 5023 ft | 231 kts | 185° |
| 2026-05-07 22:28 | 28.26399 | -81.42707 | 5017 ft | 232 kts | 181° |
| 2026-05-07 22:29 | 28.24835 | -81.42253 | 5009 ft | 236 kts | 150° |
| 2026-05-07 22:29 | 28.23711 | -81.40910 | 5021 ft | 237 kts | 119° |
| 2026-05-07 22:29 | 28.23026 | -81.39222 | 4946 ft | 235 kts | 114° |
| 2026-05-07 22:29 | 28.22392 | -81.37512 | 4522 ft | 236 kts | 113° |
| 2026-05-07 22:30 | 28.21831 | -81.35741 | 4046 ft | 239 kts | 101° |
| 2026-05-07 22:30 | 28.21851 | -81.33867 | 3640 ft | 237 kts | 83° |
| 2026-05-07 22:30 | 28.22035 | -81.31998 | 3211 ft | 238 kts | 82° |
| 2026-05-07 22:30 | 28.22378 | -81.30191 | 3067 ft | 233 kts | 72° |
| 2026-05-07 22:31 | 28.23199 | -81.28616 | 3027 ft | 236 kts | 36° |
| 2026-05-07 22:31 | 28.24648 | -81.27976 | 3033 ft | 225 kts | 357° |
| 2026-05-07 22:31 | 28.26167 | -81.28080 | 2971 ft | 216 kts | 353° |
| 2026-05-07 22:31 | 28.27650 | -81.28104 | 2750 ft | 210 kts | 355° |
| 2026-05-07 22:32 | 28.29097 | -81.28110 | 2491 ft | 206 kts | 356° |
| 2026-05-07 22:32 | 28.30509 | -81.28121 | 2219 ft | 199 kts | 354° |
| 2026-05-07 22:32 | 28.31848 | -81.28134 | 1962 ft | 185 kts | 354° |
| 2026-05-07 22:32 | 28.33140 | -81.28149 | 1746 ft | 187 kts | 356° |
| 2026-05-07 22:33 | 28.34418 | -81.28160 | 1529 ft | 176 kts | 354° |
| 2026-05-07 22:33 | 28.35608 | -81.28171 | 1279 ft | 167 kts | 355° |
| 2026-05-07 22:33 | 28.36781 | -81.28200 | 1067 ft | 172 kts | 353° |
| 2026-05-07 22:33 | 28.38004 | -81.28219 | 894 ft | 182 kts | 358° |
| 2026-05-07 22:34 | 28.39303 | -81.28213 | 674 ft | 188 kts | 357° |
| 2026-05-07 22:34 | 28.40594 | -81.28222 | 407 ft | 179 kts | 355° |
| 2026-05-07 22:34 | 28.41443 | -81.28232 | 241 ft | 168 kts | 355° |
| 2026-05-07 22:34 | 28.42294 | -81.28237 | 106 ft | 151 kts | 356° |
| 2026-05-07 22:35 | 28.43224 | -81.28246 | 99 ft | 112 kts | 359° |
| 2026-05-07 22:35 | 28.43748 | -81.28252 | 105 ft | 84 kts | 360° |
| 2026-05-07 22:35 | 28.44163 | -81.28256 | 106 ft | 29 kts | 358° |
| 2026-05-07 22:35 | 28.44235 | -81.28367 | 105 ft | 21 kts | 226° |
| 2026-05-07 22:36 | 28.44105 | -81.28381 | 107 ft | 18 kts | 179° |
| 2026-05-07 22:36 | 28.43993 | -81.28379 | 108 ft | 15 kts | 179° |
| 2026-05-07 22:36 | 28.43895 | -81.28390 | 107 ft | 14 kts | 213° |
| 2026-05-07 22:36 | 28.43875 | -81.28513 | 106 ft | 22 kts | 270° |
| 2026-05-07 22:37 | 28.43874 | -81.28686 | 106 ft | 22 kts | 269° |
| 2026-05-07 22:37 | 28.43872 | -81.28852 | 106 ft | 20 kts | 269° |
| 2026-05-07 22:37 | 28.43871 | -81.29001 | 105 ft | 18 kts | 269° |
| 2026-05-07 22:37 | 28.43870 | -81.29155 | 100 ft | 21 kts | 269° |
| 2026-05-07 22:38 | 28.43806 | -81.29264 | 100 ft | 18 kts | 181° |
| 2026-05-07 22:38 | 28.43686 | -81.29263 | 101 ft | 17 kts | 179° |
| 2026-05-07 22:38 | 28.43571 | -81.29275 | 103 ft | 16 kts | 215° |
| 2026-05-07 22:38 | 28.43553 | -81.29381 | 104 ft | 13 kts | 268° |
| 2026-05-07 22:39 | 28.43552 | -81.29474 | 106 ft | 12 kts | 270° |
| 2026-05-07 22:39 | 28.43551 | -81.29598 | 103 ft | 19 kts | 269° |
| 2026-05-07 22:39 | 28.43550 | -81.29750 | 102 ft | 18 kts | 271° |
| 2026-05-07 22:39 | 28.43545 | -81.29859 | 101 ft | 13 kts | 250° |
| 2026-05-07 22:40 | 28.43464 | -81.29886 | 100 ft | 13 kts | 180° |
| 2026-05-07 22:40 | 28.43365 | -81.29885 | 99 ft | 15 kts | 179° |
| 2026-05-07 22:40 | 28.43302 | -81.29953 | 99 ft | 13 kts | 248° |
| 2026-05-07 22:40 | 28.43280 | -81.30057 | 100 ft | 14 kts | 273° |
| 2026-05-07 22:41 | 28.43316 | -81.30152 | 100 ft | 12 kts | 301° |
| 2026-05-07 22:41 | 28.43378 | -81.30194 | 100 ft | 10 kts | 11° |
| 2026-05-07 22:41 | 28.43428 | -81.30159 | 100 ft | 7 kts | 32° |
| 2026-05-07 22:41 | 28.43438 | -81.30151 | 100 ft | 1 kts | 32° |
| 2026-05-07 22:42 | 28.43449 | -81.30144 | 100 ft | 0 kts | 33° |
| 2026-05-07 22:42 | 28.43442 | -81.30148 | 100 ft | 0 kts | 32° |
| 2026-05-07 22:42 | 28.43444 | -81.30147 | 100 ft | 0 kts | 32° |
| 2026-05-07 22:43 | 28.43445 | -81.30147 | 100 ft | 0 kts | 32° |